Time;durP1;ratioP1;P1;durP2;ratioP2;P2;SDS_P1;SDS_P2;PMS_P1;PMS_P2;Temp;Humidity;BMP_temperature;BMP_pressure;BME280_temperature;BME280_humidity;BME280_pressure;Samples;Min_cycle;Max_cycle;Signal;HPM_P1;HPM_P2
2024/03/06 00:00:49;;;;;;;15.10;9.50;;;;;;;;;;5031806;28;20541;-85
2024/03/06 00:03:15;;;;;;;12.03;8.10;;;;;;;;;;5032262;28;20432;-87
2024/03/06 00:05:41;;;;;;;13.90;7.50;;;;;;;;;;5031822;28;20520;-87
2024/03/06 00:08:07;;;;;;;14.17;8.03;;;;;;;;;;5033094;28;20901;-85
2024/03/06 00:10:33;;;;;;;13.00;7.90;;;;;;;;;;5031860;28;20444;-86
2024/03/06 00:12:59;;;;;;;12.00;7.93;;;;;;;;;;5032861;28;20441;-85
2024/03/06 00:15:25;;;;;;;13.90;9.07;;;;;;;;;;5032831;28;20968;-86
2024/03/06 00:17:50;;;;;;;14.17;7.20;;;;;;;;;;5032412;28;20449;-85
2024/03/06 00:20:17;;;;;;;12.77;7.73;;;;;;;;;;5032868;28;20485;-85
2024/03/06 00:22:43;;;;;;;15.27;8.50;;;;;;;;;;5032693;28;20564;-85
2024/03/06 00:25:09;;;;;;;8.60;6.13;;;;;;;;;;5032727;28;20410;-87
2024/03/06 00:27:35;;;;;;;11.80;7.90;;;;;;;;;;5032533;28;20975;-86
2024/03/06 00:30:01;;;;;;;12.80;6.63;;;;;;;;;;5032509;28;20487;-85
2024/03/06 00:32:28;;;;;;;12.37;7.70;;;;;;;;;;5032122;28;20909;-85
2024/03/06 00:34:54;;;;;;;12.40;6.93;;;;;;;;;;5032400;28;20404;-85
2024/03/06 00:37:20;;;;;;;10.90;7.10;;;;;;;;;;5031159;28;20416;-85
2024/03/06 00:39:46;;;;;;;9.40;6.87;;;;;;;;;;5032513;28;20778;-86
2024/03/06 00:42:13;;;;;;;10.20;6.47;;;;;;;;;;5031033;28;20470;-87
2024/03/06 00:44:39;;;;;;;13.33;8.67;;;;;;;;;;5032549;28;20496;-86
2024/03/06 00:47:05;;;;;;;11.47;7.30;;;;;;;;;;5032089;28;20995;-86
2024/03/06 00:49:31;;;;;;;11.23;8.10;;;;;;;;;;5032491;28;20434;-87
2024/03/06 00:51:57;;;;;;;9.10;6.73;;;;;;;;;;5032532;28;20497;-84
2024/03/06 00:54:23;;;;;;;8.50;6.90;;;;;;;;;;5013288;28;20903;-86
2024/03/06 00:56:48;;;;;;;10.37;7.27;;;;;;;;;;5031067;28;20509;-86
2024/03/06 00:59:14;;;;;;;9.57;6.37;;;;;;;;;;5032384;28;20426;-85
2024/03/06 01:01:41;;;;;;;15.00;7.03;;;;;;;;;;5030614;28;20470;-85
2024/03/06 01:04:07;;;;;;;10.77;7.23;;;;;;;;;;5032405;28;20777;-86
2024/03/06 01:06:33;;;;;;;10.27;6.33;;;;;;;;;;5032281;28;20425;-87
2024/03/06 01:08:59;;;;;;;10.87;6.13;;;;;;;;;;5030929;28;20973;-87
2024/03/06 01:11:26;;;;;;;11.30;7.20;;;;;;;;;;5031310;28;20502;-87
2024/03/06 01:13:52;;;;;;;13.30;6.70;;;;;;;;;;5032373;28;20420;-88
2024/03/06 01:16:18;;;;;;;8.03;6.33;;;;;;;;;;5033683;28;20451;-87
2024/03/06 01:18:44;;;;;;;12.60;7.07;;;;;;;;;;5036691;28;20419;-87
2024/03/06 01:21:10;;;;;;;8.50;5.60;;;;;;;;;;5036394;28;20920;-86
2024/03/06 01:23:36;;;;;;;10.30;6.87;;;;;;;;;;5036204;28;20752;-87
2024/03/06 01:26:01;;;;;;;9.10;7.33;;;;;;;;;;5036261;28;20424;-86
2024/03/06 01:28:28;;;;;;;8.53;6.63;;;;;;;;;;5036657;28;20978;-87
2024/03/06 01:30:54;;;;;;;8.50;5.90;;;;;;;;;;5036646;28;20504;-87
2024/03/06 01:33:20;;;;;;;9.20;7.23;;;;;;;;;;5036244;28;20511;-87
2024/03/06 01:35:46;;;;;;;10.20;5.87;;;;;;;;;;5036348;28;20425;-86
2024/03/06 01:38:12;;;;;;;9.50;6.33;;;;;;;;;;5036233;28;20501;-87
2024/03/06 01:40:38;;;;;;;9.67;6.47;;;;;;;;;;5018776;28;20475;-86
2024/03/06 01:43:04;;;;;;;11.80;6.00;;;;;;;;;;5036295;28;20984;-87
2024/03/06 01:45:31;;;;;;;7.50;5.80;;;;;;;;;;5036357;28;20914;-85
2024/03/06 01:47:57;;;;;;;8.47;5.67;;;;;;;;;;5018105;28;20463;-85
2024/03/06 01:50:23;;;;;;;8.20;5.57;;;;;;;;;;5036037;28;20432;-86
2024/03/06 01:52:51;;;;;;;11.13;6.20;;;;;;;;;;5036084;28;20823;-86
2024/03/06 01:55:17;;;;;;;9.20;5.80;;;;;;;;;;5036062;28;20497;-86
2024/03/06 01:57:43;;;;;;;6.37;5.40;;;;;;;;;;5035985;28;20468;-87
2024/03/06 02:00:13;;;;;;;10.00;5.83;;;;;;;;;;5035957;28;20410;-86
2024/03/06 02:02:39;;;;;;;8.00;5.00;;;;;;;;;;5035386;28;20475;-86
2024/03/06 02:05:06;;;;;;;8.37;6.07;;;;;;;;;;5035831;28;20407;-86
2024/03/06 02:07:32;;;;;;;8.53;5.83;;;;;;;;;;5035891;28;20510;-88
2024/03/06 02:09:58;;;;;;;8.93;4.90;;;;;;;;;;5018116;28;20414;-88
2024/03/06 02:12:24;;;;;;;7.47;5.70;;;;;;;;;;5035949;28;20421;-87
2024/03/06 02:14:50;;;;;;;6.87;4.80;;;;;;;;;;5018083;28;20422;-88
2024/03/06 02:17:16;;;;;;;6.47;4.57;;;;;;;;;;5014127;28;20900;-86
2024/03/06 02:19:43;;;;;;;8.30;5.77;;;;;;;;;;5015762;28;20506;-85
2024/03/06 02:22:09;;;;;;;8.37;5.60;;;;;;;;;;5015833;28;20471;-85
2024/03/06 02:24:36;;;;;;;7.83;6.10;;;;;;;;;;5015841;28;20435;-84
2024/03/06 02:27:02;;;;;;;6.90;4.67;;;;;;;;;;5015283;28;20422;-84
2024/03/06 02:29:28;;;;;;;9.30;5.37;;;;;;;;;;5014356;28;20425;-84
2024/03/06 02:31:54;;;;;;;7.93;6.07;;;;;;;;;;5014022;28;20431;-84
2024/03/06 02:34:20;;;;;;;8.20;5.40;;;;;;;;;;5015535;28;20418;-85
2024/03/06 02:36:46;;;;;;;9.37;5.53;;;;;;;;;;5015599;28;20420;-84
2024/03/06 02:39:12;;;;;;;9.03;4.97;;;;;;;;;;5015554;28;20901;-84
2024/03/06 02:41:38;;;;;;;6.60;5.23;;;;;;;;;;5015419;28;20472;-85
2024/03/06 02:44:04;;;;;;;8.73;5.23;;;;;;;;;;5015417;28;20410;-87
2024/03/06 02:46:30;;;;;;;12.80;6.50;;;;;;;;;;5015069;28;20478;-85
2024/03/06 02:48:56;;;;;;;7.60;5.70;;;;;;;;;;5015229;28;20407;-85
2024/03/06 02:51:22;;;;;;;8.63;5.20;;;;;;;;;;5015336;28;20478;-86
2024/03/06 02:53:49;;;;;;;8.07;5.30;;;;;;;;;;5013982;28;20420;-84
2024/03/06 02:56:18;;;;;;;8.97;5.90;;;;;;;;;;5015253;28;20928;-85
2024/03/06 02:58:44;;;;;;;9.73;5.30;;;;;;;;;;5014892;28;20437;-85
2024/03/06 03:01:10;;;;;;;9.53;5.43;;;;;;;;;;5014642;28;20500;-85
2024/03/06 03:03:36;;;;;;;8.87;5.40;;;;;;;;;;5015040;28;20431;-85
2024/03/06 03:06:02;;;;;;;7.40;5.13;;;;;;;;;;5014996;28;20758;-86
2024/03/06 03:08:28;;;;;;;7.07;5.07;;;;;;;;;;5015021;28;20433;-86
2024/03/06 03:10:55;;;;;;;7.63;5.73;;;;;;;;;;5014442;28;20430;-85
2024/03/06 03:13:21;;;;;;;8.80;6.10;;;;;;;;;;5014371;28;20412;-85
2024/03/06 03:15:48;;;;;;;6.93;5.17;;;;;;;;;;5016195;28;20420;-87
2024/03/06 03:18:14;;;;;;;10.77;6.33;;;;;;;;;;5034072;28;20429;-85
2024/03/06 03:20:39;;;;;;;11.87;6.50;;;;;;;;;;5033912;28;20799;-85
2024/03/06 03:23:11;;;;;;;7.90;5.57;;;;;;;;;;5033970;28;20431;-84
2024/03/06 03:25:37;;;;;;;8.20;5.77;;;;;;;;;;5032778;28;20412;-87
2024/03/06 03:28:03;;;;;;;9.03;6.37;;;;;;;;;;5034038;28;20793;-87
2024/03/06 03:30:29;;;;;;;11.47;7.53;;;;;;;;;;5033252;28;20416;-87
2024/03/06 03:32:55;;;;;;;7.37;5.13;;;;;;;;;;5032555;28;20411;-88
2024/03/06 03:35:24;;;;;;;10.13;6.57;;;;;;;;;;5034358;28;20418;-88
2024/03/06 03:37:51;;;;;;;10.37;7.93;;;;;;;;;;5033361;28;20461;-86
2024/03/06 03:40:17;;;;;;;10.83;7.50;;;;;;;;;;5034243;28;20510;-87
2024/03/06 03:42:44;;;;;;;6.53;5.60;;;;;;;;;;5032944;28;20914;-87
2024/03/06 03:45:10;;;;;;;9.60;6.63;;;;;;;;;;5034092;28;20790;-85
2024/03/06 03:47:36;;;;;;;11.30;7.60;;;;;;;;;;5032665;28;20483;-86
2024/03/06 03:50:02;;;;;;;8.23;6.40;;;;;;;;;;5033850;28;20476;-86
2024/03/06 03:52:28;;;;;;;10.40;8.03;;;;;;;;;;5032638;28;20425;-86
2024/03/06 03:54:54;;;;;;;7.07;5.17;;;;;;;;;;5032601;28;20983;-86
2024/03/06 03:57:20;;;;;;;10.10;6.30;;;;;;;;;;5032657;28;20452;-85
2024/03/06 03:59:45;;;;;;;11.50;7.23;;;;;;;;;;5033896;28;20414;-86
2024/03/06 04:02:11;;;;;;;10.03;6.70;;;;;;;;;;5015946;28;20509;-85
2024/03/06 04:04:37;;;;;;;8.90;6.53;;;;;;;;;;5032651;28;20406;-86
2024/03/06 04:07:03;;;;;;;11.47;6.63;;;;;;;;;;5033815;28;20784;-86
2024/03/06 04:09:29;;;;;;;9.77;6.17;;;;;;;;;;5033610;28;20459;-86
2024/03/06 04:11:55;;;;;;;11.80;7.53;;;;;;;;;;5033751;28;20429;-86
2024/03/06 04:14:21;;;;;;;10.23;6.77;;;;;;;;;;5033640;28;20407;-86
2024/03/06 04:16:47;;;;;;;13.37;8.50;;;;;;;;;;5032996;28;20559;-86
2024/03/06 04:19:14;;;;;;;10.10;7.13;;;;;;;;;;5032242;28;20781;-85
2024/03/06 04:21:43;;;;;;;11.00;6.43;;;;;;;;;;5033324;28;20552;-85
2024/03/06 04:24:09;;;;;;;7.50;5.27;;;;;;;;;;5032081;28;20951;-85
2024/03/06 04:26:35;;;;;;;13.43;6.60;;;;;;;;;;5033411;28;20463;-85
2024/03/06 04:29:01;;;;;;;7.93;6.27;;;;;;;;;;5033282;28;20420;-85
2024/03/06 04:31:27;;;;;;;11.17;6.23;;;;;;;;;;5032879;28;20761;-86
2024/03/06 04:33:53;;;;;;;8.60;6.00;;;;;;;;;;5015617;28;20421;-86
2024/03/06 04:36:18;;;;;;;8.57;5.67;;;;;;;;;;5033249;28;20410;-86
2024/03/06 04:38:44;;;;;;;10.33;5.77;;;;;;;;;;5031816;28;20449;-85
2024/03/06 04:41:10;;;;;;;12.37;6.50;;;;;;;;;;5033011;28;20592;-85
2024/03/06 04:43:36;;;;;;;10.40;7.00;;;;;;;;;;5033098;28;20401;-86
2024/03/06 04:46:02;;;;;;;8.10;6.20;;;;;;;;;;5032643;28;20491;-85
2024/03/06 04:48:28;;;;;;;9.47;6.90;;;;;;;;;;5033069;28;20857;-85
2024/03/06 04:50:54;;;;;;;7.50;5.03;;;;;;;;;;5032790;28;20412;-84
2024/03/06 04:53:20;;;;;;;9.37;6.40;;;;;;;;;;5033058;28;20398;-85
2024/03/06 04:55:46;;;;;;;8.77;6.03;;;;;;;;;;5033025;28;20767;-85
2024/03/06 04:58:12;;;;;;;7.60;5.80;;;;;;;;;;5032990;28;20463;-84
2024/03/06 05:00:38;;;;;;;6.70;5.70;;;;;;;;;;5032536;28;20484;-85
2024/03/06 05:03:04;;;;;;;10.23;7.20;;;;;;;;;;5032944;28;20462;-85
2024/03/06 05:05:30;;;;;;;9.97;6.27;;;;;;;;;;5032987;28;20833;-85
2024/03/06 05:07:56;;;;;;;10.87;6.30;;;;;;;;;;5031575;28;20413;-86
2024/03/06 05:10:22;;;;;;;10.47;5.27;;;;;;;;;;5031732;28;20420;-85
2024/03/06 05:12:48;;;;;;;6.97;4.43;;;;;;;;;;5032861;28;20409;-84
2024/03/06 05:15:14;;;;;;;8.77;5.43;;;;;;;;;;5032783;28;20467;-85
2024/03/06 05:17:40;;;;;;;6.73;5.20;;;;;;;;;;5032512;28;20563;-86
2024/03/06 05:20:07;;;;;;;10.33;5.67;;;;;;;;;;5033395;28;20413;-85
2024/03/06 05:22:33;;;;;;;11.63;5.87;;;;;;;;;;5033143;28;20476;-85
2024/03/06 05:24:59;;;;;;;10.53;6.27;;;;;;;;;;5033301;28;20413;-85
2024/03/06 05:27:26;;;;;;;9.73;5.13;;;;;;;;;;5032967;28;20748;-86
2024/03/06 05:29:52;;;;;;;10.33;6.67;;;;;;;;;;5032701;28;20407;-84
2024/03/06 05:32:18;;;;;;;10.57;5.50;;;;;;;;;;5032317;28;20453;-87
2024/03/06 05:34:44;;;;;;;7.73;5.53;;;;;;;;;;5032770;28;20409;-86
2024/03/06 05:37:13;;;;;;;8.03;5.97;;;;;;;;;;5015021;28;20423;-87
2024/03/06 05:39:39;;;;;;;6.10;4.03;;;;;;;;;;5033003;28;20475;-85
2024/03/06 05:42:05;;;;;;;5.83;5.10;;;;;;;;;;5026599;28;20469;-85
2024/03/06 05:44:32;;;;;;;8.23;5.47;;;;;;;;;;5032898;28;20489;-86
2024/03/06 05:47:01;;;;;;;7.70;6.37;;;;;;;;;;5032530;28;20423;-86
2024/03/06 05:49:27;;;;;;;10.30;5.40;;;;;;;;;;5032822;28;20763;-85
2024/03/06 05:51:53;;;;;;;7.93;5.93;;;;;;;;;;5032293;28;20413;-85
2024/03/06 05:54:20;;;;;;;8.60;5.87;;;;;;;;;;5032380;28;20439;-85
2024/03/06 05:56:48;;;;;;;12.03;5.53;;;;;;;;;;5013865;28;20457;-85
2024/03/06 05:59:15;;;;;;;7.57;5.50;;;;;;;;;;5014520;28;20459;-86
2024/03/06 06:01:41;;;;;;;7.93;5.30;;;;;;;;;;5033423;28;20475;-86
2024/03/06 06:04:09;;;;;;;7.27;6.03;;;;;;;;;;5036000;28;20469;-86
2024/03/06 06:06:35;;;;;;;8.53;4.80;;;;;;;;;;5035673;28;20800;-85
2024/03/06 06:09:00;;;;;;;8.70;5.23;;;;;;;;;;5035928;28;20770;-85
2024/03/06 06:11:27;;;;;;;7.90;5.73;;;;;;;;;;5035838;28;20397;-85
2024/03/06 06:13:53;;;;;;;7.60;5.70;;;;;;;;;;5035924;28;20817;-86
2024/03/06 06:16:19;;;;;;;8.20;6.73;;;;;;;;;;5035255;28;20465;-86
2024/03/06 06:18:45;;;;;;;8.40;6.87;;;;;;;;;;5035755;28;20412;-86
2024/03/06 06:21:11;;;;;;;7.47;5.97;;;;;;;;;;5035571;28;20546;-88
2024/03/06 06:23:37;;;;;;;13.37;6.80;;;;;;;;;;5035838;28;20433;-86
2024/03/06 06:26:03;;;;;;;7.23;6.30;;;;;;;;;;5035999;28;20976;-86
2024/03/06 06:28:28;;;;;;;9.63;5.77;;;;;;;;;;5035755;28;20414;-87
2024/03/06 06:30:54;;;;;;;7.90;6.23;;;;;;;;;;5035226;28;20401;-86
2024/03/06 06:33:20;;;;;;;7.07;5.97;;;;;;;;;;5035554;28;20412;-87
2024/03/06 06:35:47;;;;;;;11.70;6.30;;;;;;;;;;5035442;28;20495;-87
2024/03/06 06:38:12;;;;;;;10.83;7.40;;;;;;;;;;5035411;28;20424;-86
2024/03/06 06:40:40;;;;;;;12.30;7.07;;;;;;;;;;5035263;28;20405;-88
2024/03/06 06:43:06;;;;;;;8.10;6.87;;;;;;;;;;5017567;28;20433;-86
2024/03/06 06:45:32;;;;;;;10.20;6.30;;;;;;;;;;5034849;28;20417;-86
2024/03/06 06:47:58;;;;;;;8.33;6.00;;;;;;;;;;5035114;28;20504;-86
2024/03/06 06:50:26;;;;;;;8.80;6.73;;;;;;;;;;5017483;28;20811;-88
2024/03/06 06:52:52;;;;;;;9.40;7.40;;;;;;;;;;5035308;28;20913;-86
2024/03/06 06:55:20;;;;;;;12.60;6.80;;;;;;;;;;5035101;28;20423;-87
2024/03/06 06:57:46;;;;;;;10.23;6.73;;;;;;;;;;5035188;28;20421;-86
2024/03/06 07:00:12;;;;;;;9.30;7.47;;;;;;;;;;5034731;28;20409;-86
2024/03/06 07:02:41;;;;;;;9.70;6.70;;;;;;;;;;5035113;28;20492;-87
2024/03/06 07:05:08;;;;;;;9.23;5.67;;;;;;;;;;5034931;28;20417;-87
2024/03/06 07:07:34;;;;;;;5.37;4.40;;;;;;;;;;5034878;28;20439;-86
2024/03/06 07:10:00;;;;;;;7.63;4.60;;;;;;;;;;5034879;28;20830;-87
2024/03/06 07:12:26;;;;;;;7.00;5.00;;;;;;;;;;5016959;28;20414;-88
2024/03/06 07:14:52;;;;;;;9.73;4.90;;;;;;;;;;5035139;28;20410;-88
2024/03/06 07:17:18;;;;;;;4.47;2.67;;;;;;;;;;5034360;28;20464;-88
2024/03/06 07:19:44;;;;;;;6.20;4.30;;;;;;;;;;5035267;28;20419;-88
2024/03/06 07:22:10;;;;;;;5.07;3.60;;;;;;;;;;5017097;28;20474;-89
2024/03/06 07:24:36;;;;;;;5.97;4.67;;;;;;;;;;5034696;28;20695;-86
2024/03/06 07:27:02;;;;;;;6.00;4.17;;;;;;;;;;5034665;28;20650;-86
2024/03/06 07:29:28;;;;;;;6.50;2.80;;;;;;;;;;5034382;28;20468;-86
2024/03/06 07:31:54;;;;;;;6.23;2.90;;;;;;;;;;5034538;28;20410;-86
2024/03/06 07:34:23;;;;;;;6.30;3.30;;;;;;;;;;5034734;28;20422;-88
2024/03/06 07:36:49;;;;;;;3.70;3.13;;;;;;;;;;5034522;28;20451;-89
2024/03/06 07:39:16;;;;;;;3.67;2.93;;;;;;;;;;5034442;28;20414;-88
2024/03/06 07:41:42;;;;;;;4.60;3.60;;;;;;;;;;5034546;28;20477;-89
2024/03/06 07:44:11;;;;;;;4.87;3.60;;;;;;;;;;5017077;28;21024;-90
2024/03/06 07:46:37;;;;;;;5.93;3.90;;;;;;;;;;5034299;28;20411;-89
2024/03/06 07:49:04;;;;;;;6.00;3.43;;;;;;;;;;5016843;28;20411;-89
2024/03/06 07:51:30;;;;;;;3.90;3.00;;;;;;;;;;5017722;28;20432;-88
2024/03/06 07:53:57;;;;;;;3.57;3.00;;;;;;;;;;5017414;28;20427;-89
2024/03/06 07:56:23;;;;;;;4.37;3.97;;;;;;;;;;5018559;28;20455;-88
2024/03/06 07:58:49;;;;;;;6.33;3.30;;;;;;;;;;5035277;28;20426;-88
2024/03/06 08:01:15;;;;;;;7.60;4.47;;;;;;;;;;5036748;28;20480;-86
2024/03/06 08:03:42;;;;;;;4.00;3.60;;;;;;;;;;5036155;28;20420;-88
2024/03/06 08:06:09;;;;;;;6.30;3.57;;;;;;;;;;5017844;28;20508;-87
2024/03/06 08:08:35;;;;;;;4.27;3.87;;;;;;;;;;5014907;28;20420;-85
2024/03/06 08:11:01;;;;;;;4.40;4.00;;;;;;;;;;5033577;28;20429;-83
2024/03/06 08:13:27;;;;;;;4.47;4.07;;;;;;;;;;5033399;28;20511;-83
2024/03/06 08:15:53;;;;;;;4.10;3.47;;;;;;;;;;5032934;28;20467;-83
2024/03/06 08:18:19;;;;;;;4.63;3.93;;;;;;;;;;5033499;28;20415;-82
2024/03/06 08:20:45;;;;;;;6.70;4.00;;;;;;;;;;5033413;28;20465;-84
2024/03/06 08:23:11;;;;;;;5.13;4.10;;;;;;;;;;5033328;28;20510;-84
2024/03/06 08:25:37;;;;;;;5.90;3.50;;;;;;;;;;5032969;28;20419;-83
2024/03/06 08:28:03;;;;;;;5.00;4.50;;;;;;;;;;5033210;28;20180;-83
2024/03/06 08:30:32;;;;;;;5.40;4.60;;;;;;;;;;5015160;28;20510;-82
2024/03/06 08:32:58;;;;;;;5.30;3.83;;;;;;;;;;5033287;28;20443;-84
2024/03/06 08:35:24;;;;;;;5.03;4.53;;;;;;;;;;5033249;28;20561;-83
2024/03/06 08:37:51;;;;;;;6.40;5.80;;;;;;;;;;5015540;28;20766;-82
2024/03/06 08:40:17;;;;;;;6.87;4.50;;;;;;;;;;5033145;28;20769;-86
2024/03/06 08:42:49;;;;;;;6.67;5.33;;;;;;;;;;5033009;28;20471;-82
2024/03/06 08:45:15;;;;;;;6.30;4.90;;;;;;;;;;5032758;28;20540;-83
2024/03/06 08:47:41;;;;;;;8.13;5.07;;;;;;;;;;5033040;28;20846;-85
2024/03/06 08:50:09;;;;;;;5.80;4.80;;;;;;;;;;5033066;28;20420;-82
2024/03/06 08:52:35;;;;;;;5.23;3.77;;;;;;;;;;5033038;28;20808;-82
2024/03/06 08:55:04;;;;;;;7.90;5.77;;;;;;;;;;5032671;28;20409;-82
2024/03/06 08:57:31;;;;;;;6.47;5.60;;;;;;;;;;5032981;28;20166;-82
2024/03/06 08:59:57;;;;;;;7.10;4.50;;;;;;;;;;5032611;28;21131;-79
2024/03/06 09:02:22;;;;;;;7.80;5.60;;;;;;;;;;5032717;28;20640;-81
2024/03/06 09:04:49;;;;;;;6.60;5.27;;;;;;;;;;5014229;28;20479;-81
2024/03/06 09:07:15;;;;;;;8.30;5.80;;;;;;;;;;5032423;28;20414;-84
2024/03/06 09:09:41;;;;;;;8.00;6.07;;;;;;;;;;5032720;28;20412;-85
2024/03/06 09:12:10;;;;;;;6.20;5.60;;;;;;;;;;5032701;28;20905;-80
2024/03/06 09:14:36;;;;;;;7.77;5.40;;;;;;;;;;5032741;28;20416;-77
2024/03/06 09:17:02;;;;;;;6.50;5.23;;;;;;;;;;5032020;28;20476;-80
2024/03/06 09:19:28;;;;;;;6.10;5.50;;;;;;;;;;5032115;28;20422;-82
2024/03/06 09:21:54;;;;;;;7.73;5.87;;;;;;;;;;5032612;28;20475;-81
2024/03/06 09:24:24;;;;;;;9.10;7.53;;;;;;;;;;5032707;28;20401;-76
2024/03/06 09:26:50;;;;;;;8.10;6.97;;;;;;;;;;5032615;28;20411;-79
2024/03/06 09:29:16;;;;;;;8.67;7.70;;;;;;;;;;5032621;28;20950;-83
2024/03/06 09:31:42;;;;;;;10.07;7.20;;;;;;;;;;5032255;28;20170;-83
2024/03/06 09:34:12;;;;;;;8.50;7.70;;;;;;;;;;5032617;28;20776;-83
2024/03/06 09:36:38;;;;;;;10.63;7.97;;;;;;;;;;5034206;28;20418;-84
2024/03/06 09:39:07;;;;;;;9.03;7.33;;;;;;;;;;5036465;28;20409;-84
2024/03/06 09:41:33;;;;;;;8.67;6.80;;;;;;;;;;5036341;28;20449;-79
2024/03/06 09:44:00;;;;;;;8.20;7.00;;;;;;;;;;5018469;28;20436;-79
2024/03/06 09:46:27;;;;;;;10.60;7.80;;;;;;;;;;5035963;28;20463;-80
2024/03/06 09:48:54;;;;;;;13.97;8.53;;;;;;;;;;5036154;28;20420;-80
2024/03/06 09:51:20;;;;;;;10.47;7.50;;;;;;;;;;5036239;28;20428;-79
2024/03/06 09:53:51;;;;;;;11.53;8.03;;;;;;;;;;5036199;28;20504;-79
2024/03/06 09:56:19;;;;;;;9.47;7.17;;;;;;;;;;5036127;28;20494;-84
2024/03/06 09:58:44;;;;;;;9.47;7.27;;;;;;;;;;5018293;28;20467;-80
2024/03/06 10:01:11;;;;;;;9.03;7.30;;;;;;;;;;5035632;28;20986;-82
2024/03/06 10:03:38;;;;;;;10.27;8.10;;;;;;;;;;5036002;28;20253;-83
2024/03/06 10:06:04;;;;;;;8.83;7.03;;;;;;;;;;5035529;28;20421;-84
2024/03/06 10:08:29;;;;;;;8.93;7.07;;;;;;;;;;5035882;28;20417;-83
2024/03/06 10:10:56;;;;;;;8.90;8.00;;;;;;;;;;5035899;28;20495;-83
2024/03/06 10:13:25;;;;;;;9.17;7.97;;;;;;;;;;5018213;28;20185;-80
2024/03/06 10:16:01;;;;;;;8.63;7.73;;;;;;;;;;5035264;28;20451;-81
2024/03/06 10:18:28;;;;;;;7.80;7.00;;;;;;;;;;5017888;28;20436;-80
2024/03/06 10:20:54;;;;;;;8.63;7.67;;;;;;;;;;5037992;28;20417;-90
2024/03/06 10:23:20;;;;;;;8.70;7.90;;;;;;;;;;5039096;28;20429;-83
2024/03/06 10:25:52;;;;;;;8.80;7.90;;;;;;;;;;5036630;28;20483;-83
2024/03/06 10:28:20;;;;;;;8.00;7.20;;;;;;;;;;5036476;28;20428;-84
2024/03/06 10:30:46;;;;;;;8.63;7.83;;;;;;;;;;5018062;28;20417;-83
2024/03/06 10:33:12;;;;;;;8.23;7.43;;;;;;;;;;5036282;28;20426;-83
2024/03/06 10:35:40;;;;;;;8.73;7.70;;;;;;;;;;5035306;28;20440;-82
2024/03/06 10:38:07;;;;;;;10.63;7.93;;;;;;;;;;5035271;28;20401;-82
2024/03/06 10:40:34;;;;;;;7.70;6.90;;;;;;;;;;5035221;28;20496;-79
2024/03/06 10:43:00;;;;;;;9.10;8.20;;;;;;;;;;5034992;28;20495;-79
2024/03/06 10:45:35;;;;;;;8.93;7.33;;;;;;;;;;5034788;28;20822;-80
2024/03/06 10:48:01;;;;;;;7.87;7.17;;;;;;;;;;5034739;28;20412;-81
2024/03/06 10:50:27;;;;;;;8.70;7.10;;;;;;;;;;5035054;28;20420;-80
2024/03/06 10:52:57;;;;;;;7.57;6.67;;;;;;;;;;5034573;28;20416;-80
2024/03/06 10:55:23;;;;;;;7.53;6.83;;;;;;;;;;5015838;28;20406;-82
2024/03/06 10:57:51;;;;;;;8.23;6.60;;;;;;;;;;4999236;28;20398;-81
2024/03/06 11:00:18;;;;;;;9.43;7.53;;;;;;;;;;5022083;28;20479;-85
2024/03/06 11:02:47;;;;;;;8.77;7.73;;;;;;;;;;5018900;28;20499;-88
2024/03/06 11:05:13;;;;;;;8.03;7.33;;;;;;;;;;5035863;28;20440;-81
2024/03/06 11:07:39;;;;;;;8.87;7.73;;;;;;;;;;5035589;28;20762;-87
2024/03/06 11:10:05;;;;;;;9.33;6.97;;;;;;;;;;5017718;28;20913;-84
2024/03/06 11:12:38;;;;;;;7.37;6.20;;;;;;;;;;5034773;28;20413;-82
2024/03/06 11:15:14;;;;;;;7.53;6.83;;;;;;;;;;5034741;28;20413;-79
2024/03/06 11:17:40;;;;;;;7.90;6.80;;;;;;;;;;5034991;28;20457;-92
2024/03/06 11:20:06;;;;;;;7.63;6.90;;;;;;;;;;5035254;28;20409;-89
2024/03/06 11:22:51;;;;;;;7.23;6.40;;;;;;;;;;5035579;28;20483;-90
2024/03/06 11:25:36;;;;;;;8.73;7.90;;;;;;;;;;5035275;28;20620;-90
2024/03/06 11:28:05;;;;;;;8.13;7.33;;;;;;;;;;5035419;28;20423;-92
2024/03/06 11:30:31;;;;;;;8.97;7.67;;;;;;;;;;5035437;28;20401;-91
2024/03/06 11:32:58;;;;;;;11.80;8.07;;;;;;;;;;5018223;28;20416;-89
2024/03/06 11:35:24;;;;;;;8.27;7.47;;;;;;;;;;5035267;28;20422;-90
2024/03/06 11:37:52;;;;;;;8.57;7.67;;;;;;;;;;5035149;28;20420;-90
2024/03/06 11:40:24;;;;;;;7.43;6.73;;;;;;;;;;5017903;28;20420;-91
2024/03/06 11:42:50;;;;;;;8.60;7.80;;;;;;;;;;5018508;28;20464;-90
2024/03/06 11:45:17;;;;;;;9.77;8.30;;;;;;;;;;5034763;28;20428;-84
2024/03/06 11:48:02;;;;;;;10.50;8.43;;;;;;;;;;5034718;28;20417;-91
2024/03/06 11:50:30;;;;;;;9.60;7.10;;;;;;;;;;5015315;28;20468;-85
2024/03/06 11:52:56;;;;;;;7.23;6.53;;;;;;;;;;5014275;28;20464;-82
2024/03/06 11:55:22;;;;;;;8.50;7.60;;;;;;;;;;5013962;28;20414;-86
2024/03/06 11:57:48;;;;;;;8.17;7.37;;;;;;;;;;5014127;28;20643;-83
2024/03/06 12:00:14;;;;;;;8.43;7.30;;;;;;;;;;5012949;28;20537;-80
2024/03/06 12:02:41;;;;;;;7.90;6.83;;;;;;;;;;5013977;28;20929;-85
2024/03/06 12:05:10;;;;;;;8.07;7.23;;;;;;;;;;5014515;28;20418;-84
2024/03/06 12:07:45;;;;;;;7.97;7.23;;;;;;;;;;5014578;28;20420;-91
2024/03/06 12:10:11;;;;;;;8.13;7.33;;;;;;;;;;5015671;28;20418;-82
2024/03/06 12:12:37;;;;;;;8.00;7.30;;;;;;;;;;5014633;28;20422;-91
2024/03/06 12:15:08;;;;;;;6.80;6.20;;;;;;;;;;5013921;28;20452;-85
2024/03/06 12:17:46;;;;;;;7.90;7.10;;;;;;;;;;5013418;28;20802;-81
2024/03/06 12:20:18;;;;;;;7.10;6.40;;;;;;;;;;5013698;28;20426;-79
2024/03/06 12:22:51;;;;;;;7.23;6.50;;;;;;;;;;5013608;28;20564;-82
2024/03/06 12:25:27;;;;;;;7.00;6.23;;;;;;;;;;5013505;28;20417;-86
2024/03/06 12:27:55;;;;;;;8.13;6.53;;;;;;;;;;5013545;28;20407;-80
2024/03/06 12:30:22;;;;;;;8.30;6.33;;;;;;;;;;5013248;28;20472;-85
2024/03/06 12:32:58;;;;;;;10.80;7.23;;;;;;;;;;5013511;28;20760;-85
2024/03/06 12:35:27;;;;;;;10.17;6.47;;;;;;;;;;5013501;28;20404;-86
2024/03/06 12:37:53;;;;;;;8.50;7.33;;;;;;;;;;5013486;28;20415;-85
2024/03/06 12:40:20;;;;;;;11.07;7.03;;;;;;;;;;5013455;28;20416;-80
2024/03/06 12:42:46;;;;;;;7.43;5.87;;;;;;;;;;5013200;28;20475;-85
2024/03/06 12:45:13;;;;;;;8.70;6.37;;;;;;;;;;5012947;28;20925;-85
2024/03/06 12:47:41;;;;;;;10.93;7.73;;;;;;;;;;5014006;28;20416;-87
2024/03/06 12:50:07;;;;;;;9.03;6.03;;;;;;;;;;5018521;28;20419;-81
2024/03/06 12:52:34;;;;;;;7.40;6.20;;;;;;;;;;5032209;28;20561;-85
2024/03/06 12:55:00;;;;;;;9.43;6.90;;;;;;;;;;5033016;28;20415;-81
2024/03/06 12:57:29;;;;;;;8.50;5.40;;;;;;;;;;5032624;28;20427;-80
2024/03/06 12:59:55;;;;;;;9.60;7.50;;;;;;;;;;5032812;28;20419;-87
2024/03/06 13:02:20;;;;;;;8.80;6.03;;;;;;;;;;5033307;28;20975;-81
2024/03/06 13:04:46;;;;;;;8.03;6.10;;;;;;;;;;5033110;28;20225;-85
2024/03/06 13:07:14;;;;;;;7.40;5.47;;;;;;;;;;5033028;28;20606;-84
2024/03/06 13:09:40;;;;;;;8.70;5.87;;;;;;;;;;5033107;28;20520;-90
2024/03/06 13:12:06;;;;;;;8.33;6.30;;;;;;;;;;5039439;28;20480;-86
2024/03/06 13:14:32;;;;;;;7.53;5.60;;;;;;;;;;5023655;28;20423;-90
2024/03/06 13:16:59;;;;;;;11.20;6.30;;;;;;;;;;5038498;28;20487;-88
2024/03/06 13:19:25;;;;;;;10.60;6.50;;;;;;;;;;5040754;28;20771;-85
2024/03/06 13:21:51;;;;;;;7.20;6.20;;;;;;;;;;5037466;28;20458;-81
2024/03/06 13:24:19;;;;;;;6.43;5.30;;;;;;;;;;5037788;28;20811;-89
2024/03/06 13:26:45;;;;;;;7.63;6.03;;;;;;;;;;5019780;28;20405;-84
2024/03/06 13:29:11;;;;;;;7.40;5.97;;;;;;;;;;5037581;28;20447;-92
2024/03/06 13:31:37;;;;;;;7.77;6.10;;;;;;;;;;5040263;28;20430;-88
2024/03/06 13:34:03;;;;;;;6.93;5.50;;;;;;;;;;5022005;28;20422;-91
2024/03/06 13:36:30;;;;;;;6.70;6.10;;;;;;;;;;5039458;28;20442;-93
2024/03/06 13:38:59;;;;;;;6.73;5.70;;;;;;;;;;5039430;28;20411;-91
2024/03/06 13:41:25;;;;;;;8.13;6.50;;;;;;;;;;5042202;28;20869;-92
2024/03/06 13:43:51;;;;;;;7.10;5.00;;;;;;;;;;5039895;28;20414;-90
2024/03/06 13:46:17;;;;;;;7.97;6.33;;;;;;;;;;5038663;28;20988;-87
2024/03/06 13:48:43;;;;;;;7.40;5.83;;;;;;;;;;5037613;28;20462;-88
2024/03/06 13:51:09;;;;;;;7.57;5.37;;;;;;;;;;5038079;28;20832;-87
2024/03/06 13:53:35;;;;;;;11.53;5.93;;;;;;;;;;5038720;28;20524;-88
2024/03/06 13:56:01;;;;;;;9.37;6.03;;;;;;;;;;5034967;28;20773;-84
2024/03/06 13:58:30;;;;;;;7.77;5.57;;;;;;;;;;5040436;28;20447;-80
2024/03/06 14:00:56;;;;;;;8.43;6.93;;;;;;;;;;5043627;28;20417;-86
2024/03/06 14:03:22;;;;;;;5.80;5.03;;;;;;;;;;5042442;28;20421;-81
2024/03/06 14:05:51;;;;;;;6.73;5.13;;;;;;;;;;5044766;28;20418;-88
2024/03/06 14:08:17;;;;;;;7.97;6.10;;;;;;;;;;5044523;28;20521;-88
2024/03/06 14:10:45;;;;;;;6.97;5.03;;;;;;;;;;5043261;28;20413;-85
2024/03/06 14:13:11;;;;;;;8.70;4.87;;;;;;;;;;5040343;28;20414;-85
2024/03/06 14:15:37;;;;;;;7.00;5.40;;;;;;;;;;5038646;28;20459;-87
2024/03/06 14:18:04;;;;;;;7.87;5.20;;;;;;;;;;5040824;28;20413;-83
2024/03/06 14:20:30;;;;;;;7.97;5.00;;;;;;;;;;5040392;28;20436;-84
2024/03/06 14:22:56;;;;;;;7.87;5.70;;;;;;;;;;5038209;28;20833;-89
2024/03/06 14:25:22;;;;;;;8.80;5.70;;;;;;;;;;5040938;28;20818;-87
2024/03/06 14:27:48;;;;;;;7.53;5.20;;;;;;;;;;5040738;28;20452;-90
2024/03/06 14:30:15;;;;;;;7.80;5.37;;;;;;;;;;5040524;28;20406;-87
2024/03/06 14:32:41;;;;;;;8.37;5.70;;;;;;;;;;5035991;28;20617;-88
2024/03/06 14:35:08;;;;;;;8.77;5.53;;;;;;;;;;5036598;28;20841;-87
2024/03/06 14:37:34;;;;;;;7.53;5.27;;;;;;;;;;5037157;28;20421;-88